EWG3YT ESSA-EDDL
Flight info
| Callsign | EWG3YT |
|---|---|
| Flight time | 1h 45m |
| Altitude | 36000 |
| Route | NOSLI N850 ABAMA DCT GIMRU DCT NIE DCT DENOL T851 HALME HALME1A |
| Aircraft | A319/M-SDE3FGHIRWY/LB1 |
Departure
| Time | 2026-05-07 20:25 |
|---|---|
| Airport | Stockholm-Arlanda Airport (ESSA) |
Arrival
| Time | 2026-05-07 22:10 |
|---|---|
| Airport | Düsseldorf Airport (EDDL) |
| Time | Latitude | Longitude | Altitude | Speed | Heading |
|---|---|---|---|---|---|
| 2026-05-07 20:01 | 59.64722 | 17.92675 | 112 ft | 0 kts | 28° |
| 2026-05-07 20:13 | 59.64718 | 17.92670 | 112 ft | 3 kts | 28° |
| 2026-05-07 20:13 | 59.64695 | 17.92646 | 111 ft | 3 kts | 30° |
| 2026-05-07 20:13 | 59.64679 | 17.92630 | 110 ft | 4 kts | 338° |
| 2026-05-07 20:14 | 59.64666 | 17.92660 | 112 ft | 4 kts | 300° |
| 2026-05-07 20:14 | 59.64654 | 17.92700 | 112 ft | 1 kts | 300° |
| 2026-05-07 20:14 | 59.64654 | 17.92701 | 112 ft | 0 kts | 300° |
| 2026-05-07 20:17 | 59.64659 | 17.92684 | 112 ft | 4 kts | 300° |
| 2026-05-07 20:17 | 59.64678 | 17.92601 | 110 ft | 9 kts | 287° |
| 2026-05-07 20:18 | 59.64699 | 17.92458 | 110 ft | 11 kts | 285° |
| 2026-05-07 20:18 | 59.64715 | 17.92342 | 111 ft | 0 kts | 285° |
| 2026-05-07 20:18 | 59.64718 | 17.92321 | 112 ft | 4 kts | 285° |
| 2026-05-07 20:18 | 59.64714 | 17.92230 | 112 ft | 10 kts | 235° |
| 2026-05-07 20:19 | 59.64634 | 17.92178 | 112 ft | 15 kts | 191° |
| 2026-05-07 20:19 | 59.64509 | 17.92133 | 113 ft | 21 kts | 190° |
| 2026-05-07 20:19 | 59.64365 | 17.92080 | 114 ft | 15 kts | 190° |
| 2026-05-07 20:19 | 59.64290 | 17.92145 | 113 ft | 13 kts | 114° |
| 2026-05-07 20:20 | 59.64247 | 17.92316 | 114 ft | 16 kts | 117° |
| 2026-05-07 20:20 | 59.64185 | 17.92552 | 113 ft | 23 kts | 117° |
| 2026-05-07 20:20 | 59.64103 | 17.92860 | 112 ft | 26 kts | 117° |
| 2026-05-07 20:20 | 59.64018 | 17.93184 | 111 ft | 27 kts | 117° |
| 2026-05-07 20:21 | 59.63994 | 17.93464 | 110 ft | 20 kts | 73° |
| 2026-05-07 20:21 | 59.64063 | 17.93709 | 112 ft | 21 kts | 58° |
| 2026-05-07 20:21 | 59.64151 | 17.93982 | 108 ft | 26 kts | 58° |
| 2026-05-07 20:21 | 59.64255 | 17.94313 | 103 ft | 29 kts | 58° |
| 2026-05-07 20:22 | 59.64351 | 17.94616 | 103 ft | 23 kts | 58° |
| 2026-05-07 20:22 | 59.64471 | 17.94793 | 103 ft | 24 kts | 8° |
| 2026-05-07 20:22 | 59.64641 | 17.94848 | 101 ft | 25 kts | 10° |
| 2026-05-07 20:22 | 59.64718 | 17.95007 | 102 ft | 16 kts | 58° |
| 2026-05-07 20:23 | 59.64786 | 17.95219 | 103 ft | 20 kts | 57° |
| 2026-05-07 20:23 | 59.64880 | 17.95369 | 107 ft | 17 kts | 83° |
| 2026-05-07 20:23 | 59.64862 | 17.95602 | 106 ft | 18 kts | 98° |
| 2026-05-07 20:23 | 59.64814 | 17.95833 | 105 ft | 17 kts | 143° |
| 2026-05-07 20:24 | 59.64728 | 17.95835 | 107 ft | 0 kts | 191° |
| 2026-05-07 20:24 | 59.64675 | 17.95816 | 107 ft | 33 kts | 190° |
| 2026-05-07 20:24 | 59.64165 | 17.95629 | 112 ft | 112 kts | 190° |
| 2026-05-07 20:25 | 59.63210 | 17.95299 | 327 ft | 148 kts | 188° |
| 2026-05-07 20:25 | 59.62201 | 17.94951 | 1050 ft | 148 kts | 188° |
| 2026-05-07 20:25 | 59.61181 | 17.94623 | 1720 ft | 154 kts | 182° |
| 2026-05-07 20:25 | 59.60094 | 17.95206 | 2099 ft | 176 kts | 146° |
| 2026-05-07 20:26 | 59.59074 | 17.96816 | 2471 ft | 201 kts | 140° |
| 2026-05-07 20:26 | 59.57966 | 17.98609 | 3232 ft | 208 kts | 140° |
| 2026-05-07 20:26 | 59.56768 | 18.00233 | 4117 ft | 211 kts | 155° |
| 2026-05-07 20:26 | 59.55318 | 18.00982 | 4804 ft | 226 kts | 178° |
| 2026-05-07 20:27 | 59.53717 | 18.00705 | 5552 ft | 235 kts | 188° |
| 2026-05-07 20:27 | 59.52072 | 18.00291 | 6432 ft | 241 kts | 188° |
| 2026-05-07 20:27 | 59.50398 | 17.99779 | 7270 ft | 246 kts | 198° |
| 2026-05-07 20:27 | 59.48884 | 17.98307 | 8126 ft | 247 kts | 221° |
| 2026-05-07 20:28 | 59.47688 | 17.95734 | 8740 ft | 262 kts | 243° |
| 2026-05-07 20:28 | 59.46988 | 17.92398 | 9389 ft | 273 kts | 253° |
| 2026-05-07 20:28 | 59.45942 | 17.89218 | 10247 ft | 286 kts | 227° |
| 2026-05-07 20:28 | 59.44352 | 17.86547 | 10739 ft | 308 kts | 223° |
| 2026-05-07 20:29 | 59.42627 | 17.83824 | 11269 ft | 324 kts | 221° |
| 2026-05-07 20:29 | 59.40848 | 17.81039 | 12068 ft | 329 kts | 222° |
| 2026-05-07 20:29 | 59.39058 | 17.78198 | 12940 ft | 332 kts | 223° |
| 2026-05-07 20:29 | 59.37292 | 17.75343 | 13801 ft | 335 kts | 223° |
| 2026-05-07 20:30 | 59.35496 | 17.72399 | 14578 ft | 338 kts | 224° |
| 2026-05-07 20:30 | 59.33690 | 17.69413 | 15343 ft | 341 kts | 224° |
| 2026-05-07 20:30 | 59.31875 | 17.66402 | 16106 ft | 343 kts | 224° |
| 2026-05-07 20:30 | 59.30050 | 17.63370 | 16888 ft | 345 kts | 225° |
| 2026-05-07 20:31 | 59.28214 | 17.60318 | 17652 ft | 348 kts | 225° |
| 2026-05-07 20:31 | 59.26358 | 17.57244 | 18385 ft | 351 kts | 224° |
| 2026-05-07 20:31 | 59.24490 | 17.54158 | 19007 ft | 354 kts | 224° |
| 2026-05-07 20:31 | 59.22599 | 17.51035 | 19635 ft | 357 kts | 224° |
| 2026-05-07 20:32 | 59.20695 | 17.47893 | 20276 ft | 360 kts | 224° |
| 2026-05-07 20:32 | 59.18775 | 17.44740 | 20915 ft | 363 kts | 224° |
| 2026-05-07 20:32 | 59.16834 | 17.41575 | 21544 ft | 365 kts | 224° |
| 2026-05-07 20:32 | 59.14875 | 17.38384 | 22168 ft | 368 kts | 224° |
| 2026-05-07 20:33 | 59.12902 | 17.35168 | 22791 ft | 371 kts | 225° |
| 2026-05-07 20:33 | 59.10914 | 17.31925 | 23402 ft | 374 kts | 225° |
| 2026-05-07 20:33 | 59.08912 | 17.28660 | 23953 ft | 377 kts | 225° |
| 2026-05-07 20:33 | 59.06892 | 17.25373 | 24427 ft | 380 kts | 225° |
| 2026-05-07 20:34 | 59.04853 | 17.22067 | 24905 ft | 383 kts | 225° |
| 2026-05-07 20:34 | 59.02797 | 17.18739 | 25338 ft | 386 kts | 224° |
| 2026-05-07 20:34 | 59.00726 | 17.15385 | 25758 ft | 390 kts | 225° |
| 2026-05-07 20:34 | 58.98636 | 17.12000 | 26192 ft | 393 kts | 225° |
| 2026-05-07 20:35 | 58.96526 | 17.08591 | 26633 ft | 396 kts | 225° |
| 2026-05-07 20:35 | 58.94396 | 17.05161 | 27064 ft | 399 kts | 225° |
| 2026-05-07 20:35 | 58.92250 | 17.01714 | 27489 ft | 402 kts | 225° |
| 2026-05-07 20:35 | 58.90089 | 16.98249 | 27920 ft | 405 kts | 225° |
| 2026-05-07 20:36 | 58.87910 | 16.94763 | 28342 ft | 408 kts | 225° |
| 2026-05-07 20:36 | 58.85713 | 16.91255 | 28761 ft | 411 kts | 225° |
| 2026-05-07 20:36 | 58.83495 | 16.87719 | 29174 ft | 414 kts | 225° |
| 2026-05-07 20:36 | 58.81266 | 16.84171 | 29572 ft | 417 kts | 225° |
| 2026-05-07 20:37 | 58.79015 | 16.80595 | 29968 ft | 420 kts | 225° |
| 2026-05-07 20:37 | 58.76750 | 16.77001 | 30279 ft | 424 kts | 224° |
| 2026-05-07 20:37 | 58.74460 | 16.73371 | 30578 ft | 427 kts | 224° |
| 2026-05-07 20:37 | 58.72160 | 16.69725 | 30898 ft | 430 kts | 224° |
| 2026-05-07 20:38 | 58.69848 | 16.66071 | 31217 ft | 432 kts | 224° |
| 2026-05-07 20:38 | 58.67518 | 16.62393 | 31533 ft | 434 kts | 224° |
| 2026-05-07 20:38 | 58.65178 | 16.58711 | 31837 ft | 436 kts | 224° |
| 2026-05-07 20:38 | 58.62821 | 16.55016 | 32224 ft | 436 kts | 224° |
| 2026-05-07 20:39 | 58.60473 | 16.51343 | 32684 ft | 435 kts | 224° |
| 2026-05-07 20:39 | 58.58128 | 16.47680 | 33119 ft | 434 kts | 224° |
| 2026-05-07 20:39 | 58.55789 | 16.44032 | 33565 ft | 433 kts | 224° |
| 2026-05-07 20:39 | 58.53454 | 16.40393 | 33954 ft | 433 kts | 223° |
| 2026-05-07 20:40 | 58.51113 | 16.36748 | 34306 ft | 434 kts | 223° |
| 2026-05-07 20:40 | 58.48767 | 16.33112 | 34662 ft | 434 kts | 223° |
| 2026-05-07 20:40 | 58.46425 | 16.29494 | 35039 ft | 433 kts | 223° |
| 2026-05-07 20:40 | 58.44087 | 16.25887 | 35417 ft | 431 kts | 223° |
| 2026-05-07 20:41 | 58.41759 | 16.22302 | 35778 ft | 430 kts | 222° |
| 2026-05-07 20:41 | 58.39432 | 16.18720 | 36105 ft | 430 kts | 222° |
| 2026-05-07 20:41 | 58.37112 | 16.15148 | 36182 ft | 426 kts | 222° |
| 2026-05-07 20:42 | 58.32525 | 16.08124 | 36197 ft | 421 kts | 222° |
| 2026-05-07 20:42 | 58.27956 | 16.01152 | 36194 ft | 422 kts | 221° |
| 2026-05-07 20:43 | 58.24141 | 15.95349 | 36193 ft | 423 kts | 221° |
| 2026-05-07 20:43 | 58.19544 | 15.88362 | 36196 ft | 423 kts | 221° |
| 2026-05-07 20:44 | 58.14945 | 15.81390 | 36197 ft | 423 kts | 221° |
| 2026-05-07 20:44 | 58.10337 | 15.74446 | 36198 ft | 423 kts | 221° |
| 2026-05-07 20:45 | 58.05721 | 15.67536 | 36177 ft | 424 kts | 220° |
| 2026-05-07 20:45 | 58.01101 | 15.60619 | 36174 ft | 425 kts | 220° |
| 2026-05-07 20:46 | 57.96435 | 15.53758 | 36173 ft | 426 kts | 219° |
| 2026-05-07 20:46 | 57.91658 | 15.47128 | 36176 ft | 427 kts | 218° |
| 2026-05-07 20:47 | 57.86845 | 15.40575 | 36180 ft | 427 kts | 218° |
| 2026-05-07 20:47 | 57.82038 | 15.34009 | 36193 ft | 427 kts | 218° |
| 2026-05-07 20:48 | 57.77236 | 15.27438 | 36199 ft | 427 kts | 218° |
| 2026-05-07 20:48 | 57.72445 | 15.20879 | 36194 ft | 427 kts | 218° |
| 2026-05-07 20:49 | 57.67652 | 15.14342 | 36185 ft | 427 kts | 218° |
| 2026-05-07 20:49 | 57.62856 | 15.07821 | 36188 ft | 426 kts | 218° |
| 2026-05-07 20:50 | 57.58052 | 15.01330 | 36177 ft | 426 kts | 218° |
| 2026-05-07 20:50 | 57.53268 | 14.94895 | 36172 ft | 427 kts | 218° |
| 2026-05-07 20:51 | 57.48414 | 14.88363 | 36167 ft | 428 kts | 218° |
| 2026-05-07 20:51 | 57.43613 | 14.81932 | 36168 ft | 429 kts | 218° |
| 2026-05-07 20:52 | 57.38775 | 14.75469 | 36168 ft | 429 kts | 218° |
| 2026-05-07 20:52 | 57.33929 | 14.69015 | 36141 ft | 429 kts | 217° |
| 2026-05-07 20:53 | 57.29067 | 14.62573 | 36144 ft | 430 kts | 217° |
| 2026-05-07 20:53 | 57.24193 | 14.56135 | 36139 ft | 431 kts | 217° |
| 2026-05-07 20:54 | 57.19305 | 14.49700 | 36136 ft | 432 kts | 217° |
| 2026-05-07 20:54 | 57.14416 | 14.43278 | 36142 ft | 432 kts | 217° |
| 2026-05-07 20:55 | 57.09514 | 14.36866 | 36135 ft | 432 kts | 217° |
| 2026-05-07 20:55 | 57.04607 | 14.30465 | 36147 ft | 433 kts | 216° |
| 2026-05-07 20:56 | 56.99692 | 14.24074 | 36140 ft | 433 kts | 216° |
| 2026-05-07 20:56 | 56.94773 | 14.17697 | 36155 ft | 433 kts | 216° |
| 2026-05-07 20:57 | 56.89847 | 14.11326 | 36159 ft | 434 kts | 216° |
| 2026-05-07 20:57 | 56.84916 | 14.04977 | 36164 ft | 434 kts | 216° |
| 2026-05-07 20:58 | 56.79973 | 13.98645 | 36168 ft | 434 kts | 216° |
| 2026-05-07 20:58 | 56.75029 | 13.92324 | 36171 ft | 434 kts | 216° |
| 2026-05-07 20:59 | 56.70074 | 13.86018 | 36175 ft | 434 kts | 216° |
| 2026-05-07 20:59 | 56.65128 | 13.79722 | 36174 ft | 434 kts | 216° |
| 2026-05-07 21:00 | 56.60165 | 13.73440 | 36171 ft | 435 kts | 215° |
| 2026-05-07 21:00 | 56.55203 | 13.67173 | 36171 ft | 435 kts | 216° |
| 2026-05-07 21:01 | 56.50230 | 13.60910 | 36176 ft | 435 kts | 215° |
| 2026-05-07 21:01 | 56.45249 | 13.54678 | 36176 ft | 436 kts | 215° |
| 2026-05-07 21:02 | 56.40262 | 13.48455 | 36180 ft | 436 kts | 215° |
| 2026-05-07 21:02 | 56.35276 | 13.42230 | 36175 ft | 436 kts | 215° |
| 2026-05-07 21:03 | 56.30280 | 13.36015 | 36175 ft | 436 kts | 215° |
| 2026-05-07 21:03 | 56.25278 | 13.29830 | 36176 ft | 437 kts | 215° |
| 2026-05-07 21:04 | 56.20266 | 13.23652 | 36166 ft | 437 kts | 215° |
| 2026-05-07 21:04 | 56.15254 | 13.17480 | 36169 ft | 437 kts | 215° |
| 2026-05-07 21:05 | 56.10236 | 13.11334 | 36183 ft | 437 kts | 214° |
| 2026-05-07 21:05 | 56.05208 | 13.05190 | 36178 ft | 438 kts | 214° |
| 2026-05-07 21:06 | 56.00204 | 12.99099 | 36175 ft | 438 kts | 214° |
| 2026-05-07 21:06 | 55.95132 | 12.92933 | 36178 ft | 438 kts | 214° |
| 2026-05-07 21:07 | 55.90117 | 12.86856 | 36183 ft | 439 kts | 214° |
| 2026-05-07 21:07 | 55.85064 | 12.80761 | 36183 ft | 439 kts | 214° |
| 2026-05-07 21:08 | 55.80006 | 12.74680 | 36187 ft | 439 kts | 214° |
| 2026-05-07 21:08 | 55.74938 | 12.68610 | 36193 ft | 439 kts | 214° |
| 2026-05-07 21:09 | 55.69867 | 12.62552 | 36194 ft | 439 kts | 214° |
| 2026-05-07 21:09 | 55.64790 | 12.56514 | 36196 ft | 439 kts | 213° |
| 2026-05-07 21:10 | 55.59717 | 12.50488 | 36195 ft | 439 kts | 213° |
| 2026-05-07 21:10 | 55.54641 | 12.44477 | 36184 ft | 439 kts | 213° |
| 2026-05-07 21:11 | 55.49561 | 12.38480 | 36184 ft | 439 kts | 213° |
| 2026-05-07 21:11 | 55.41933 | 12.29510 | 36182 ft | 439 kts | 213° |
| 2026-05-07 21:12 | 55.36844 | 12.23558 | 36184 ft | 439 kts | 213° |
| 2026-05-07 21:12 | 55.31752 | 12.17623 | 36186 ft | 439 kts | 213° |
| 2026-05-07 21:13 | 55.26667 | 12.11702 | 36186 ft | 439 kts | 213° |
| 2026-05-07 21:13 | 55.21576 | 12.05792 | 36187 ft | 439 kts | 213° |
| 2026-05-07 21:14 | 55.16483 | 11.99913 | 36185 ft | 439 kts | 213° |
| 2026-05-07 21:14 | 55.11387 | 11.94043 | 36184 ft | 439 kts | 213° |
| 2026-05-07 21:15 | 55.06287 | 11.88186 | 36180 ft | 439 kts | 213° |
| 2026-05-07 21:15 | 55.01186 | 11.82333 | 36180 ft | 439 kts | 213° |
| 2026-05-07 21:16 | 54.96081 | 11.76511 | 36180 ft | 439 kts | 213° |
| 2026-05-07 21:16 | 54.90968 | 11.70700 | 36182 ft | 439 kts | 212° |
| 2026-05-07 21:17 | 54.85853 | 11.64894 | 36181 ft | 439 kts | 212° |
| 2026-05-07 21:17 | 54.80733 | 11.59103 | 36177 ft | 439 kts | 212° |
| 2026-05-07 21:18 | 54.75613 | 11.53332 | 36177 ft | 439 kts | 212° |
| 2026-05-07 21:18 | 54.70489 | 11.47558 | 36181 ft | 439 kts | 212° |
| 2026-05-07 21:19 | 54.65360 | 11.41796 | 36178 ft | 440 kts | 212° |
| 2026-05-07 21:19 | 54.60228 | 11.36067 | 36175 ft | 440 kts | 212° |
| 2026-05-07 21:20 | 54.55086 | 11.30351 | 36180 ft | 439 kts | 212° |
| 2026-05-07 21:20 | 54.49900 | 11.24807 | 36179 ft | 439 kts | 211° |
| 2026-05-07 21:21 | 54.44681 | 11.19366 | 36178 ft | 439 kts | 210° |
| 2026-05-07 21:21 | 54.39460 | 11.13935 | 36180 ft | 438 kts | 211° |
| 2026-05-07 21:22 | 54.34252 | 11.08482 | 36177 ft | 438 kts | 211° |
| 2026-05-07 21:22 | 54.29049 | 11.03038 | 36177 ft | 438 kts | 211° |
| 2026-05-07 21:23 | 54.23874 | 10.97647 | 36177 ft | 438 kts | 211° |
| 2026-05-07 21:23 | 54.18680 | 10.92236 | 36184 ft | 437 kts | 211° |
| 2026-05-07 21:24 | 54.13500 | 10.86850 | 36179 ft | 436 kts | 211° |
| 2026-05-07 21:24 | 54.08317 | 10.81502 | 36181 ft | 435 kts | 210° |
| 2026-05-07 21:25 | 54.03133 | 10.76178 | 36179 ft | 435 kts | 210° |
| 2026-05-07 21:25 | 53.97957 | 10.70889 | 36183 ft | 434 kts | 211° |
| 2026-05-07 21:26 | 53.92792 | 10.65602 | 36182 ft | 433 kts | 211° |
| 2026-05-07 21:26 | 53.87638 | 10.60333 | 36182 ft | 432 kts | 211° |
| 2026-05-07 21:27 | 53.82494 | 10.55096 | 36184 ft | 432 kts | 211° |
| 2026-05-07 21:27 | 53.77348 | 10.49867 | 36175 ft | 431 kts | 211° |
| 2026-05-07 21:28 | 53.72203 | 10.44656 | 36176 ft | 431 kts | 211° |
| 2026-05-07 21:28 | 53.67896 | 10.40315 | 36174 ft | 430 kts | 211° |
| 2026-05-07 21:29 | 53.62761 | 10.35146 | 36169 ft | 429 kts | 211° |
| 2026-05-07 21:29 | 53.57630 | 10.30000 | 36167 ft | 429 kts | 211° |
| 2026-05-07 21:30 | 53.52513 | 10.24787 | 36131 ft | 431 kts | 212° |
| 2026-05-07 21:30 | 53.47432 | 10.19486 | 36138 ft | 433 kts | 212° |
| 2026-05-07 21:31 | 53.42311 | 10.14150 | 36123 ft | 434 kts | 212° |
| 2026-05-07 21:31 | 53.37207 | 10.08792 | 36156 ft | 432 kts | 213° |
| 2026-05-07 21:32 | 53.32130 | 10.03423 | 36167 ft | 430 kts | 213° |
| 2026-05-07 21:32 | 53.27069 | 9.98078 | 36159 ft | 429 kts | 213° |
| 2026-05-07 21:33 | 53.22029 | 9.92769 | 36157 ft | 428 kts | 213° |
| 2026-05-07 21:33 | 53.16987 | 9.87477 | 36155 ft | 428 kts | 213° |
| 2026-05-07 21:34 | 53.11948 | 9.82214 | 36154 ft | 427 kts | 213° |
| 2026-05-07 21:34 | 53.06909 | 9.76954 | 36152 ft | 427 kts | 213° |
| 2026-05-07 21:35 | 53.01874 | 9.71722 | 36151 ft | 427 kts | 212° |
| 2026-05-07 21:35 | 52.96828 | 9.66506 | 36150 ft | 427 kts | 212° |
| 2026-05-07 21:36 | 52.91781 | 9.61295 | 36150 ft | 427 kts | 212° |
| 2026-05-07 21:36 | 52.86736 | 9.56103 | 36141 ft | 427 kts | 212° |
| 2026-05-07 21:37 | 52.81692 | 9.50918 | 36137 ft | 427 kts | 213° |
| 2026-05-07 21:37 | 52.76681 | 9.45773 | 36137 ft | 427 kts | 213° |
| 2026-05-07 21:38 | 52.71632 | 9.40610 | 36139 ft | 427 kts | 212° |
| 2026-05-07 21:38 | 52.66581 | 9.35466 | 36138 ft | 427 kts | 212° |
| 2026-05-07 21:39 | 52.61495 | 9.30296 | 36131 ft | 427 kts | 212° |
| 2026-05-07 21:39 | 52.56465 | 9.25205 | 36135 ft | 427 kts | 212° |
| 2026-05-07 21:40 | 52.51403 | 9.20088 | 36047 ft | 429 kts | 212° |
| 2026-05-07 21:40 | 52.48858 | 9.17514 | 35496 ft | 430 kts | 212° |
| 2026-05-07 21:40 | 52.46314 | 9.14947 | 34962 ft | 428 kts | 212° |
| 2026-05-07 21:41 | 52.43778 | 9.12398 | 34441 ft | 427 kts | 212° |
| 2026-05-07 21:41 | 52.41251 | 9.09861 | 33883 ft | 425 kts | 212° |
| 2026-05-07 21:41 | 52.38735 | 9.07341 | 33274 ft | 422 kts | 212° |
| 2026-05-07 21:41 | 52.36231 | 9.04839 | 32678 ft | 419 kts | 212° |
| 2026-05-07 21:42 | 52.33749 | 9.02360 | 32097 ft | 417 kts | 212° |
| 2026-05-07 21:42 | 52.31281 | 8.99898 | 31515 ft | 414 kts | 212° |
| 2026-05-07 21:42 | 52.28830 | 8.97453 | 30964 ft | 411 kts | 212° |
| 2026-05-07 21:42 | 52.26390 | 8.95017 | 30414 ft | 409 kts | 212° |
| 2026-05-07 21:43 | 52.23972 | 8.92603 | 29828 ft | 406 kts | 212° |
| 2026-05-07 21:43 | 52.21569 | 8.90204 | 29184 ft | 403 kts | 212° |
| 2026-05-07 21:43 | 52.19184 | 8.87831 | 28574 ft | 400 kts | 212° |
| 2026-05-07 21:43 | 52.16803 | 8.85472 | 27960 ft | 398 kts | 212° |
| 2026-05-07 21:44 | 52.14474 | 8.83174 | 27376 ft | 395 kts | 212° |
| 2026-05-07 21:44 | 52.12095 | 8.80829 | 26789 ft | 392 kts | 212° |
| 2026-05-07 21:44 | 52.09798 | 8.78566 | 26287 ft | 389 kts | 212° |
| 2026-05-07 21:44 | 52.07491 | 8.76295 | 25798 ft | 386 kts | 212° |
| 2026-05-07 21:45 | 52.05201 | 8.74040 | 25297 ft | 383 kts | 212° |
| 2026-05-07 21:45 | 52.02950 | 8.71750 | 24803 ft | 380 kts | 217° |
| 2026-05-07 21:45 | 52.00945 | 8.68974 | 24323 ft | 377 kts | 227° |
| 2026-05-07 21:45 | 51.99288 | 8.65691 | 23846 ft | 375 kts | 237° |
| 2026-05-07 21:46 | 51.98028 | 8.62020 | 23318 ft | 372 kts | 246° |
| 2026-05-07 21:46 | 51.97183 | 8.58077 | 22756 ft | 370 kts | 256° |
| 2026-05-07 21:46 | 51.96657 | 8.54002 | 22222 ft | 368 kts | 258° |
| 2026-05-07 21:46 | 51.96143 | 8.49943 | 21692 ft | 367 kts | 258° |
| 2026-05-07 21:47 | 51.95621 | 8.45904 | 21168 ft | 365 kts | 258° |
| 2026-05-07 21:47 | 51.95098 | 8.41887 | 20655 ft | 363 kts | 258° |
| 2026-05-07 21:47 | 51.94576 | 8.37889 | 20150 ft | 361 kts | 258° |
| 2026-05-07 21:47 | 51.94063 | 8.33923 | 19758 ft | 356 kts | 258° |
| 2026-05-07 21:48 | 51.93563 | 8.30064 | 19599 ft | 344 kts | 258° |
| 2026-05-07 21:48 | 51.93076 | 8.26328 | 19370 ft | 335 kts | 258° |
| 2026-05-07 21:48 | 51.92593 | 8.22659 | 19002 ft | 331 kts | 258° |
| 2026-05-07 21:48 | 51.92114 | 8.19020 | 18607 ft | 329 kts | 258° |
| 2026-05-07 21:49 | 51.91637 | 8.15399 | 18208 ft | 327 kts | 257° |
| 2026-05-07 21:49 | 51.91163 | 8.11798 | 18113 ft | 327 kts | 258° |
| 2026-05-07 21:49 | 51.90690 | 8.08183 | 18123 ft | 328 kts | 258° |
| 2026-05-07 21:49 | 51.90212 | 8.04566 | 18123 ft | 328 kts | 257° |
| 2026-05-07 21:50 | 51.89733 | 8.00943 | 18126 ft | 328 kts | 257° |
| 2026-05-07 21:50 | 51.89253 | 7.97328 | 18125 ft | 328 kts | 257° |
| 2026-05-07 21:50 | 51.88773 | 7.93707 | 18125 ft | 328 kts | 257° |
| 2026-05-07 21:50 | 51.88293 | 7.90088 | 18125 ft | 328 kts | 257° |
| 2026-05-07 21:51 | 51.87811 | 7.86482 | 18125 ft | 328 kts | 257° |
| 2026-05-07 21:51 | 51.87320 | 7.82861 | 18124 ft | 328 kts | 257° |
| 2026-05-07 21:51 | 51.86834 | 7.79297 | 18123 ft | 329 kts | 257° |
| 2026-05-07 21:51 | 51.86341 | 7.75685 | 18119 ft | 329 kts | 257° |
| 2026-05-07 21:52 | 51.85836 | 7.72073 | 18125 ft | 329 kts | 255° |
| 2026-05-07 21:52 | 51.85023 | 7.68575 | 18120 ft | 329 kts | 244° |
| 2026-05-07 21:52 | 51.84043 | 7.65286 | 18112 ft | 329 kts | 244° |
| 2026-05-07 21:52 | 51.83053 | 7.61953 | 18113 ft | 329 kts | 244° |
| 2026-05-07 21:53 | 51.82065 | 7.58624 | 18124 ft | 329 kts | 244° |
| 2026-05-07 21:53 | 51.81071 | 7.55280 | 18001 ft | 330 kts | 244° |
| 2026-05-07 21:53 | 51.80081 | 7.51953 | 17672 ft | 327 kts | 244° |
| 2026-05-07 21:53 | 51.79100 | 7.48653 | 17358 ft | 325 kts | 244° |
| 2026-05-07 21:54 | 51.78123 | 7.45370 | 17062 ft | 323 kts | 244° |
| 2026-05-07 21:54 | 51.77149 | 7.42105 | 16759 ft | 322 kts | 244° |
| 2026-05-07 21:54 | 51.76179 | 7.38856 | 16411 ft | 320 kts | 244° |
| 2026-05-07 21:54 | 51.75210 | 7.35615 | 15983 ft | 320 kts | 244° |
| 2026-05-07 21:55 | 51.74244 | 7.32391 | 15557 ft | 319 kts | 244° |
| 2026-05-07 21:55 | 51.73281 | 7.29183 | 15140 ft | 318 kts | 244° |
| 2026-05-07 21:55 | 51.72318 | 7.25977 | 14742 ft | 316 kts | 244° |
| 2026-05-07 21:55 | 51.71239 | 7.22895 | 14347 ft | 315 kts | 234° |
| 2026-05-07 21:56 | 51.69742 | 7.20334 | 13959 ft | 314 kts | 220° |
| 2026-05-07 21:56 | 51.67930 | 7.18493 | 13671 ft | 311 kts | 206° |
| 2026-05-07 21:56 | 51.65914 | 7.17223 | 13401 ft | 310 kts | 201° |
| 2026-05-07 21:56 | 51.63899 | 7.16002 | 13144 ft | 309 kts | 201° |
| 2026-05-07 21:57 | 51.61887 | 7.14778 | 12884 ft | 308 kts | 201° |
| 2026-05-07 21:57 | 51.59882 | 7.13556 | 12630 ft | 307 kts | 202° |
| 2026-05-07 21:57 | 51.57887 | 7.12341 | 12381 ft | 306 kts | 202° |
| 2026-05-07 21:57 | 51.55964 | 7.10871 | 12139 ft | 305 kts | 213° |
| 2026-05-07 21:58 | 51.54325 | 7.08729 | 11904 ft | 303 kts | 227° |
| 2026-05-07 21:58 | 51.53011 | 7.06099 | 11673 ft | 302 kts | 234° |
| 2026-05-07 21:58 | 51.51748 | 7.03403 | 11443 ft | 301 kts | 233° |
| 2026-05-07 21:58 | 51.50486 | 7.00723 | 11214 ft | 301 kts | 233° |
| 2026-05-07 21:59 | 51.49227 | 6.98055 | 10990 ft | 300 kts | 233° |
| 2026-05-07 21:59 | 51.47967 | 6.95384 | 10766 ft | 300 kts | 233° |
| 2026-05-07 21:59 | 51.46710 | 6.92724 | 10545 ft | 299 kts | 233° |
| 2026-05-07 21:59 | 51.45458 | 6.90077 | 10319 ft | 298 kts | 233° |
| 2026-05-07 22:00 | 51.44207 | 6.87435 | 10100 ft | 294 kts | 233° |
| 2026-05-07 22:00 | 51.42989 | 6.84865 | 9876 ft | 287 kts | 233° |
| 2026-05-07 22:00 | 51.41790 | 6.82334 | 9642 ft | 284 kts | 233° |
| 2026-05-07 22:00 | 51.40595 | 6.79812 | 9413 ft | 283 kts | 233° |
| 2026-05-07 22:01 | 51.39407 | 6.77310 | 9195 ft | 282 kts | 233° |
| 2026-05-07 22:01 | 51.38219 | 6.74812 | 8963 ft | 281 kts | 233° |
| 2026-05-07 22:01 | 51.37036 | 6.72327 | 8738 ft | 281 kts | 233° |
| 2026-05-07 22:01 | 51.35849 | 6.69837 | 8389 ft | 280 kts | 233° |
| 2026-05-07 22:02 | 51.34677 | 6.67374 | 8018 ft | 279 kts | 233° |
| 2026-05-07 22:02 | 51.33505 | 6.64913 | 7641 ft | 277 kts | 233° |
| 2026-05-07 22:02 | 51.32339 | 6.62470 | 7284 ft | 276 kts | 233° |
| 2026-05-07 22:02 | 51.31175 | 6.60038 | 6912 ft | 274 kts | 233° |
| 2026-05-07 22:03 | 51.30017 | 6.57628 | 6555 ft | 273 kts | 232° |
| 2026-05-07 22:03 | 51.28859 | 6.55232 | 6186 ft | 272 kts | 232° |
| 2026-05-07 22:03 | 51.27710 | 6.52840 | 5809 ft | 271 kts | 233° |
| 2026-05-07 22:03 | 51.26581 | 6.50485 | 5444 ft | 270 kts | 233° |
| 2026-05-07 22:04 | 51.25439 | 6.48104 | 5078 ft | 270 kts | 233° |
| 2026-05-07 22:04 | 51.24230 | 6.45832 | 4707 ft | 268 kts | 219° |
| 2026-05-07 22:04 | 51.22588 | 6.44546 | 4342 ft | 262 kts | 190° |
| 2026-05-07 22:04 | 51.20818 | 6.44541 | 3980 ft | 248 kts | 172° |
| 2026-05-07 22:05 | 51.19146 | 6.44902 | 3648 ft | 236 kts | 169° |
| 2026-05-07 22:05 | 51.17717 | 6.45921 | 3422 ft | 219 kts | 139° |
| 2026-05-07 22:05 | 51.16896 | 6.47819 | 3222 ft | 204 kts | 108° |
| 2026-05-07 22:05 | 51.16684 | 6.49961 | 3074 ft | 191 kts | 86° |
| 2026-05-07 22:06 | 51.16972 | 6.51983 | 3008 ft | 186 kts | 65° |
| 2026-05-07 22:06 | 51.17668 | 6.53717 | 3026 ft | 186 kts | 52° |
| 2026-05-07 22:06 | 51.18456 | 6.55354 | 3014 ft | 186 kts | 52° |
| 2026-05-07 22:06 | 51.19241 | 6.56988 | 2964 ft | 186 kts | 52° |
| 2026-05-07 22:07 | 51.20026 | 6.58624 | 2775 ft | 185 kts | 52° |
| 2026-05-07 22:07 | 51.20810 | 6.60256 | 2543 ft | 185 kts | 53° |
| 2026-05-07 22:07 | 51.21586 | 6.61874 | 2326 ft | 182 kts | 53° |
| 2026-05-07 22:07 | 51.22354 | 6.63468 | 2046 ft | 180 kts | 53° |
| 2026-05-07 22:08 | 51.23108 | 6.65043 | 1817 ft | 177 kts | 53° |
| 2026-05-07 22:08 | 51.23832 | 6.66556 | 1581 ft | 167 kts | 54° |
| 2026-05-07 22:08 | 51.24289 | 6.67512 | 1417 ft | 160 kts | 53° |
| 2026-05-07 22:08 | 51.24945 | 6.68884 | 1190 ft | 151 kts | 53° |
| 2026-05-07 22:09 | 51.25567 | 6.70184 | 979 ft | 143 kts | 53° |
| 2026-05-07 22:09 | 51.26155 | 6.71417 | 786 ft | 136 kts | 53° |
| 2026-05-07 22:09 | 51.26722 | 6.72602 | 606 ft | 133 kts | 52° |
| 2026-05-07 22:09 | 51.27279 | 6.73773 | 426 ft | 132 kts | 52° |
| 2026-05-07 22:10 | 51.27834 | 6.74934 | 258 ft | 131 kts | 52° |
| 2026-05-07 22:10 | 51.28384 | 6.76087 | 132 ft | 124 kts | 53° |
| 2026-05-07 22:10 | 51.28827 | 6.77017 | 126 ft | 82 kts | 52° |
| 2026-05-07 22:10 | 51.29069 | 6.77525 | 127 ft | 39 kts | 53° |
| 2026-05-07 22:11 | 51.29215 | 6.77830 | 134 ft | 32 kts | 52° |
| 2026-05-07 22:11 | 51.29298 | 6.78059 | 139 ft | 19 kts | 85° |
| 2026-05-07 22:11 | 51.29222 | 6.78220 | 137 ft | 20 kts | 164° |
| 2026-05-07 22:11 | 51.29134 | 6.78129 | 134 ft | 17 kts | 232° |
| 2026-05-07 22:12 | 51.29055 | 6.77965 | 128 ft | 20 kts | 232° |
| 2026-05-07 22:12 | 51.28969 | 6.77786 | 128 ft | 21 kts | 233° |
| 2026-05-07 22:12 | 51.28879 | 6.77595 | 129 ft | 22 kts | 232° |
| 2026-05-07 22:12 | 51.28785 | 6.77397 | 130 ft | 23 kts | 233° |
| 2026-05-07 22:13 | 51.28687 | 6.77193 | 130 ft | 24 kts | 232° |
| 2026-05-07 22:13 | 51.28586 | 6.76980 | 127 ft | 25 kts | 232° |
| 2026-05-07 22:13 | 51.28479 | 6.76755 | 123 ft | 26 kts | 232° |
| 2026-05-07 22:13 | 51.28389 | 6.76568 | 123 ft | 20 kts | 233° |
| 2026-05-07 22:14 | 51.28321 | 6.76485 | 123 ft | 10 kts | 167° |
| 2026-05-07 22:14 | 51.28258 | 6.76474 | 125 ft | 10 kts | 229° |
| 2026-05-07 22:14 | 51.28195 | 6.76432 | 127 ft | 10 kts | 185° |
| 2026-05-07 22:14 | 51.28133 | 6.76449 | 126 ft | 9 kts | 118° |
| 2026-05-07 22:15 | 51.28140 | 6.76529 | 128 ft | 8 kts | 80° |
| 2026-05-07 22:15 | 51.28143 | 6.76562 | 126 ft | 0 kts | 79° |